sensor_id;sensor_type;location;lat;lon;timestamp;temperature;humidity
9497;DHT22;4786;51.270;4.456;2023-03-01T00:01:32;1.10;99.90
9497;DHT22;4786;51.270;4.456;2023-03-01T00:03:59;1.10;99.90
9497;DHT22;4786;51.270;4.456;2023-03-01T00:06:25;1.10;99.90
9497;DHT22;4786;51.270;4.456;2023-03-01T00:08:51;1.00;99.90
9497;DHT22;4786;51.270;4.456;2023-03-01T00:11:26;1.00;99.90
9497;DHT22;4786;51.270;4.456;2023-03-01T00:13:56;1.00;99.90
9497;DHT22;4786;51.270;4.456;2023-03-01T00:16:28;1.00;99.90
9497;DHT22;4786;51.270;4.456;2023-03-01T00:18:55;0.90;99.90
9497;DHT22;4786;51.270;4.456;2023-03-01T00:21:23;1.00;99.90
9497;DHT22;4786;51.270;4.456;2023-03-01T00:23:50;1.40;99.90
9497;DHT22;4786;51.270;4.456;2023-03-01T00:26:17;1.10;99.90
9497;DHT22;4786;51.270;4.456;2023-03-01T00:28:44;0.90;99.90
9497;DHT22;4786;51.270;4.456;2023-03-01T00:31:12;0.80;99.90
9497;DHT22;4786;51.270;4.456;2023-03-01T00:33:39;0.70;99.90
9497;DHT22;4786;51.270;4.456;2023-03-01T00:36:06;0.60;99.90
9497;DHT22;4786;51.270;4.456;2023-03-01T00:38:40;0.60;99.90
9497;DHT22;4786;51.270;4.456;2023-03-01T00:41:09;0.70;99.90
9497;DHT22;4786;51.270;4.456;2023-03-01T00:43:35;0.70;99.90
9497;DHT22;4786;51.270;4.456;2023-03-01T00:46:06;0.70;99.90
9497;DHT22;4786;51.270;4.456;2023-03-01T00:48:33;0.80;99.90
9497;DHT22;4786;51.270;4.456;2023-03-01T00:51:16;1.20;99.90
9497;DHT22;4786;51.270;4.456;2023-03-01T00:53:43;0.70;99.90
9497;DHT22;4786;51.270;4.456;2023-03-01T00:56:10;0.70;99.90
9497;DHT22;4786;51.270;4.456;2023-03-01T00:58:37;0.70;99.90
9497;DHT22;4786;51.270;4.456;2023-03-01T01:01:11;0.70;99.90
9497;DHT22;4786;51.270;4.456;2023-03-01T01:03:52;0.70;99.90
9497;DHT22;4786;51.270;4.456;2023-03-01T01:06:42;0.60;99.90
9497;DHT22;4786;51.270;4.456;2023-03-01T01:09:10;0.70;99.90
9497;DHT22;4786;51.270;4.456;2023-03-01T01:11:43;0.80;99.90
9497;DHT22;4786;51.270;4.456;2023-03-01T01:14:09;0.90;99.90
9497;DHT22;4786;51.270;4.456;2023-03-01T01:16:35;0.70;99.90
9497;DHT22;4786;51.270;4.456;2023-03-01T01:19:02;0.70;99.90
9497;DHT22;4786;51.270;4.456;2023-03-01T01:21:28;0.70;99.90
9497;DHT22;4786;51.270;4.456;2023-03-01T01:23:55;1.00;99.90
9497;DHT22;4786;51.270;4.456;2023-03-01T01:26:25;0.90;99.90
9497;DHT22;4786;51.270;4.456;2023-03-01T01:28:52;0.80;99.90
9497;DHT22;4786;51.270;4.456;2023-03-01T01:31:19;0.90;99.90
9497;DHT22;4786;51.270;4.456;2023-03-01T01:33:46;0.70;99.90
9497;DHT22;4786;51.270;4.456;2023-03-01T01:36:12;0.80;99.90
9497;DHT22;4786;51.270;4.456;2023-03-01T01:38:38;0.80;99.90
9497;DHT22;4786;51.270;4.456;2023-03-01T01:41:05;1.00;99.90
9497;DHT22;4786;51.270;4.456;2023-03-01T01:43:34;0.70;99.90
9497;DHT22;4786;51.270;4.456;2023-03-01T01:48:55;0.60;99.90
9497;DHT22;4786;51.270;4.456;2023-03-01T01:51:29;0.60;99.90
9497;DHT22;4786;51.270;4.456;2023-03-01T01:54:10;0.60;99.90
9497;DHT22;4786;51.270;4.456;2023-03-01T01:56:41;0.60;99.90
9497;DHT22;4786;51.270;4.456;2023-03-01T01:59:08;0.50;99.90
9497;DHT22;4786;51.270;4.456;2023-03-01T02:01:35;0.50;99.90
9497;DHT22;4786;51.270;4.456;2023-03-01T02:04:01;0.60;99.90
9497;DHT22;4786;51.270;4.456;2023-03-01T02:06:31;0.60;99.90
9497;DHT22;4786;51.270;4.456;2023-03-01T02:09:01;0.50;99.90
9497;DHT22;4786;51.270;4.456;2023-03-01T02:11:31;0.50;99.90
9497;DHT22;4786;51.270;4.456;2023-03-01T02:13:58;0.70;99.90
9497;DHT22;4786;51.270;4.456;2023-03-01T02:16:25;0.50;99.90
9497;DHT22;4786;51.270;4.456;2023-03-01T02:18:51;0.50;99.90
9497;DHT22;4786;51.270;4.456;2023-03-01T02:23:59;0.60;99.90
9497;DHT22;4786;51.270;4.456;2023-03-01T02:26:42;0.50;99.90
9497;DHT22;4786;51.270;4.456;2023-03-01T02:29:11;0.50;99.90
9497;DHT22;4786;51.270;4.456;2023-03-01T02:31:36;0.50;99.90
9497;DHT22;4786;51.270;4.456;2023-03-01T02:34:22;0.50;99.90
9497;DHT22;4786;51.270;4.456;2023-03-01T02:36:55;0.50;99.90
9497;DHT22;4786;51.270;4.456;2023-03-01T02:39:25;0.50;99.90
9497;DHT22;4786;51.270;4.456;2023-03-01T02:41:54;0.40;99.90
9497;DHT22;4786;51.270;4.456;2023-03-01T02:44:22;0.50;99.90
9497;DHT22;4786;51.270;4.456;2023-03-01T02:46:51;0.30;99.90
9497;DHT22;4786;51.270;4.456;2023-03-01T02:49:27;0.30;99.90
9497;DHT22;4786;51.270;4.456;2023-03-01T02:55:13;0.20;99.90
9497;DHT22;4786;51.270;4.456;2023-03-01T02:57:43;0.20;99.90
9497;DHT22;4786;51.270;4.456;2023-03-01T03:00:14;0.20;99.90
9497;DHT22;4786;51.270;4.456;2023-03-01T03:02:46;0.20;99.90
9497;DHT22;4786;51.270;4.456;2023-03-01T03:05:22;0.10;99.90
9497;DHT22;4786;51.270;4.456;2023-03-01T03:07:49;0.20;99.90
9497;DHT22;4786;51.270;4.456;2023-03-01T03:10:18;0.10;99.90
9497;DHT22;4786;51.270;4.456;2023-03-01T03:12:52;0.10;99.90
9497;DHT22;4786;51.270;4.456;2023-03-01T03:15:19;0.10;99.90
9497;DHT22;4786;51.270;4.456;2023-03-01T03:17:46;0.10;99.90
9497;DHT22;4786;51.270;4.456;2023-03-01T03:20:15;0.30;99.90
9497;DHT22;4786;51.270;4.456;2023-03-01T03:22:45;0.00;99.90
9497;DHT22;4786;51.270;4.456;2023-03-01T03:25:12;0.00;99.90
9497;DHT22;4786;51.270;4.456;2023-03-01T03:27:40;0.00;99.90
9497;DHT22;4786;51.270;4.456;2023-03-01T03:30:08;0.00;99.90
9497;DHT22;4786;51.270;4.456;2023-03-01T03:32:38;0.00;99.90
9497;DHT22;4786;51.270;4.456;2023-03-01T03:35:06;0.20;99.90
9497;DHT22;4786;51.270;4.456;2023-03-01T03:37:39;0.00;99.90
9497;DHT22;4786;51.270;4.456;2023-03-01T03:40:24;0.00;99.90
9497;DHT22;4786;51.270;4.456;2023-03-01T03:42:50;0.00;99.90
9497;DHT22;4786;51.270;4.456;2023-03-01T03:45:17;0.00;99.90
9497;DHT22;4786;51.270;4.456;2023-03-01T03:47:43;0.30;99.90
9497;DHT22;4786;51.270;4.456;2023-03-01T03:50:13;0.10;99.90
9497;DHT22;4786;51.270;4.456;2023-03-01T03:52:39;0.00;99.90
9497;DHT22;4786;51.270;4.456;2023-03-01T03:55:08;0.30;99.90
9497;DHT22;4786;51.270;4.456;2023-03-01T03:57:35;0.00;99.90
9497;DHT22;4786;51.270;4.456;2023-03-01T04:00:02;0.00;99.90
9497;DHT22;4786;51.270;4.456;2023-03-01T04:02:30;0.00;99.90
9497;DHT22;4786;51.270;4.456;2023-03-01T04:04:56;0.10;99.90
9497;DHT22;4786;51.270;4.456;2023-03-01T04:07:22;0.10;99.90
9497;DHT22;4786;51.270;4.456;2023-03-01T04:09:48;0.10;99.90
9497;DHT22;4786;51.270;4.456;2023-03-01T04:12:14;0.10;99.90
9497;DHT22;4786;51.270;4.456;2023-03-01T04:14:40;0.00;99.90
9497;DHT22;4786;51.270;4.456;2023-03-01T04:17:06;0.00;99.90
9497;DHT22;4786;51.270;4.456;2023-03-01T04:19:32;0.00;99.90
9497;DHT22;4786;51.270;4.456;2023-03-01T04:22:02;0.00;99.90
9497;DHT22;4786;51.270;4.456;2023-03-01T04:24:35;-0.10;99.90
9497;DHT22;4786;51.270;4.456;2023-03-01T04:27:01;-0.10;99.90
9497;DHT22;4786;51.270;4.456;2023-03-01T04:29:28;-0.10;99.90
9497;DHT22;4786;51.270;4.456;2023-03-01T04:31:54;-0.10;99.90
9497;DHT22;4786;51.270;4.456;2023-03-01T04:34:20;-0.10;99.90
9497;DHT22;4786;51.270;4.456;2023-03-01T04:36:46;-0.10;99.90
9497;DHT22;4786;51.270;4.456;2023-03-01T04:39:12;-0.10;99.90
9497;DHT22;4786;51.270;4.456;2023-03-01T04:41:39;0.00;99.90
9497;DHT22;4786;51.270;4.456;2023-03-01T04:44:05;-0.20;99.90
9497;DHT22;4786;51.270;4.456;2023-03-01T04:46:32;-0.20;99.90
9497;DHT22;4786;51.270;4.456;2023-03-01T04:48:58;-0.20;99.90
9497;DHT22;4786;51.270;4.456;2023-03-01T04:51:23;-0.30;99.90
9497;DHT22;4786;51.270;4.456;2023-03-01T04:53:49;-0.30;99.90
9497;DHT22;4786;51.270;4.456;2023-03-01T04:56:15;-0.20;99.90
9497;DHT22;4786;51.270;4.456;2023-03-01T04:58:43;-0.20;99.90
9497;DHT22;4786;51.270;4.456;2023-03-01T05:01:13;-0.20;99.90
9497;DHT22;4786;51.270;4.456;2023-03-01T05:03:47;-0.20;99.90
9497;DHT22;4786;51.270;4.456;2023-03-01T05:06:14;0.00;99.90
9497;DHT22;4786;51.270;4.456;2023-03-01T05:08:41;-0.10;99.90
9497;DHT22;4786;51.270;4.456;2023-03-01T05:11:07;-0.10;99.90
9497;DHT22;4786;51.270;4.456;2023-03-01T05:13:38;-0.10;99.90
9497;DHT22;4786;51.270;4.456;2023-03-01T05:16:06;-0.10;99.90
9497;DHT22;4786;51.270;4.456;2023-03-01T05:18:33;-0.10;99.90
9497;DHT22;4786;51.270;4.456;2023-03-01T05:21:10;-0.10;99.90
9497;DHT22;4786;51.270;4.456;2023-03-01T05:23:36;-0.20;99.90
9497;DHT22;4786;51.270;4.456;2023-03-01T05:26:04;0.00;99.90
9497;DHT22;4786;51.270;4.456;2023-03-01T05:28:30;-0.30;99.90
9497;DHT22;4786;51.270;4.456;2023-03-01T05:30:56;-0.20;99.90
9497;DHT22;4786;51.270;4.456;2023-03-01T05:33:23;-0.20;99.90
9497;DHT22;4786;51.270;4.456;2023-03-01T05:35:50;-0.30;99.90
9497;DHT22;4786;51.270;4.456;2023-03-01T05:38:17;-0.30;99.90
9497;DHT22;4786;51.270;4.456;2023-03-01T05:40:45;-0.20;99.90
9497;DHT22;4786;51.270;4.456;2023-03-01T05:43:12;-0.30;99.90
9497;DHT22;4786;51.270;4.456;2023-03-01T05:45:39;-0.30;99.90
9497;DHT22;4786;51.270;4.456;2023-03-01T05:48:06;-0.40;99.90
9497;DHT22;4786;51.270;4.456;2023-03-01T05:50:38;-0.40;99.90
9497;DHT22;4786;51.270;4.456;2023-03-01T05:53:07;-0.50;99.90
9497;DHT22;4786;51.270;4.456;2023-03-01T05:55:34;-0.50;99.90
9497;DHT22;4786;51.270;4.456;2023-03-01T05:58:03;-0.50;99.90
9497;DHT22;4786;51.270;4.456;2023-03-01T06:00:30;-0.40;99.90
9497;DHT22;4786;51.270;4.456;2023-03-01T06:02:56;-0.30;99.90
9497;DHT22;4786;51.270;4.456;2023-03-01T06:05:23;-0.50;99.90
9497;DHT22;4786;51.270;4.456;2023-03-01T06:07:49;-0.60;99.90
9497;DHT22;4786;51.270;4.456;2023-03-01T06:10:16;-0.60;99.90
9497;DHT22;4786;51.270;4.456;2023-03-01T06:12:43;-0.80;99.90
9497;DHT22;4786;51.270;4.456;2023-03-01T06:15:13;-0.80;99.90
9497;DHT22;4786;51.270;4.456;2023-03-01T06:17:41;-0.90;99.90
9497;DHT22;4786;51.270;4.456;2023-03-01T06:22:38;-0.90;99.90
9497;DHT22;4786;51.270;4.456;2023-03-01T06:25:05;-0.90;99.90
9497;DHT22;4786;51.270;4.456;2023-03-01T06:27:31;-0.90;99.90
9497;DHT22;4786;51.270;4.456;2023-03-01T06:29:56;-0.90;99.90
9497;DHT22;4786;51.270;4.456;2023-03-01T06:32:22;-0.70;99.90
9497;DHT22;4786;51.270;4.456;2023-03-01T06:34:48;-1.00;99.90
9497;DHT22;4786;51.270;4.456;2023-03-01T06:37:14;-1.10;99.90
9497;DHT22;4786;51.270;4.456;2023-03-01T06:39:40;-1.10;99.90
9497;DHT22;4786;51.270;4.456;2023-03-01T06:42:07;-1.00;99.90
9497;DHT22;4786;51.270;4.456;2023-03-01T06:44:34;-1.00;99.90
9497;DHT22;4786;51.270;4.456;2023-03-01T06:47:00;-1.00;99.90
9497;DHT22;4786;51.270;4.456;2023-03-01T06:49:26;-1.00;99.90
9497;DHT22;4786;51.270;4.456;2023-03-01T06:51:52;-1.00;99.90
9497;DHT22;4786;51.270;4.456;2023-03-01T06:54:19;-0.80;99.90
9497;DHT22;4786;51.270;4.456;2023-03-01T06:56:48;-1.00;99.90
9497;DHT22;4786;51.270;4.456;2023-03-01T06:59:15;-1.00;99.90
9497;DHT22;4786;51.270;4.456;2023-03-01T07:01:41;-1.00;99.90
9497;DHT22;4786;51.270;4.456;2023-03-01T07:04:07;-0.60;99.90
9497;DHT22;4786;51.270;4.456;2023-03-01T07:06:33;-0.90;99.90
9497;DHT22;4786;51.270;4.456;2023-03-01T07:08:59;-0.90;99.90
9497;DHT22;4786;51.270;4.456;2023-03-01T07:11:25;-0.90;99.90
9497;DHT22;4786;51.270;4.456;2023-03-01T07:13:51;-0.80;99.90
9497;DHT22;4786;51.270;4.456;2023-03-01T07:16:17;-0.80;99.90
9497;DHT22;4786;51.270;4.456;2023-03-01T07:18:45;-0.70;99.90
9497;DHT22;4786;51.270;4.456;2023-03-01T07:21:13;-0.70;99.90
9497;DHT22;4786;51.270;4.456;2023-03-01T07:23:40;-0.60;99.90
9497;DHT22;4786;51.270;4.456;2023-03-01T07:26:06;-0.60;99.90
9497;DHT22;4786;51.270;4.456;2023-03-01T07:28:32;-0.60;99.90
9497;DHT22;4786;51.270;4.456;2023-03-01T07:31:04;-0.60;99.90
9497;DHT22;4786;51.270;4.456;2023-03-01T07:33:30;-0.40;99.90
9497;DHT22;4786;51.270;4.456;2023-03-01T07:36:01;-0.30;99.90
9497;DHT22;4786;51.270;4.456;2023-03-01T07:38:28;-0.20;99.90
9497;DHT22;4786;51.270;4.456;2023-03-01T07:41:01;0.00;99.90
9497;DHT22;4786;51.270;4.456;2023-03-01T07:43:29;0.20;99.90
9497;DHT22;4786;51.270;4.456;2023-03-01T07:45:57;0.00;99.90
9497;DHT22;4786;51.270;4.456;2023-03-01T07:48:23;0.00;99.90
9497;DHT22;4786;51.270;4.456;2023-03-01T07:50:49;0.10;99.90
9497;DHT22;4786;51.270;4.456;2023-03-01T07:53:15;0.10;99.90
9497;DHT22;4786;51.270;4.456;2023-03-01T07:55:40;0.20;99.90
9497;DHT22;4786;51.270;4.456;2023-03-01T07:58:06;0.30;99.90
9497;DHT22;4786;51.270;4.456;2023-03-01T08:00:32;0.50;99.90
9497;DHT22;4786;51.270;4.456;2023-03-01T08:03:01;0.70;99.90
9497;DHT22;4786;51.270;4.456;2023-03-01T08:05:28;0.90;99.90
9497;DHT22;4786;51.270;4.456;2023-03-01T08:07:54;1.30;99.90
9497;DHT22;4786;51.270;4.456;2023-03-01T08:10:20;1.70;99.90
9497;DHT22;4786;51.270;4.456;2023-03-01T08:12:46;2.70;99.90
9497;DHT22;4786;51.270;4.456;2023-03-01T08:15:12;3.40;99.90
9497;DHT22;4786;51.270;4.456;2023-03-01T08:17:37;4.10;99.90
9497;DHT22;4786;51.270;4.456;2023-03-01T08:20:04;4.60;99.90
9497;DHT22;4786;51.270;4.456;2023-03-01T08:22:31;4.50;99.90
9497;DHT22;4786;51.270;4.456;2023-03-01T08:24:57;4.90;99.90
9497;DHT22;4786;51.270;4.456;2023-03-01T08:27:23;5.10;99.90
9497;DHT22;4786;51.270;4.456;2023-03-01T08:29:49;5.00;99.90
9497;DHT22;4786;51.270;4.456;2023-03-01T08:32:14;5.10;99.90
9497;DHT22;4786;51.270;4.456;2023-03-01T08:34:40;5.80;99.90
9497;DHT22;4786;51.270;4.456;2023-03-01T08:37:06;6.10;99.90
9497;DHT22;4786;51.270;4.456;2023-03-01T08:39:32;6.00;99.90
9497;DHT22;4786;51.270;4.456;2023-03-01T08:41:58;6.30;99.90
9497;DHT22;4786;51.270;4.456;2023-03-01T08:44:24;6.80;99.90
9497;DHT22;4786;51.270;4.456;2023-03-01T08:46:51;6.50;99.90
9497;DHT22;4786;51.270;4.456;2023-03-01T08:49:19;6.90;99.90
9497;DHT22;4786;51.270;4.456;2023-03-01T08:51:46;7.30;99.90
9497;DHT22;4786;51.270;4.456;2023-03-01T08:54:18;7.90;99.90
9497;DHT22;4786;51.270;4.456;2023-03-01T08:56:45;8.50;99.90
9497;DHT22;4786;51.270;4.456;2023-03-01T08:59:12;8.80;99.90
9497;DHT22;4786;51.270;4.456;2023-03-01T09:01:39;8.90;99.90
9497;DHT22;4786;51.270;4.456;2023-03-01T09:04:05;8.40;99.90
9497;DHT22;4786;51.270;4.456;2023-03-01T09:06:33;8.10;99.90
9497;DHT22;4786;51.270;4.456;2023-03-01T09:09:00;7.70;99.90
9497;DHT22;4786;51.270;4.456;2023-03-01T09:11:29;6.80;99.90
9497;DHT22;4786;51.270;4.456;2023-03-01T09:13:55;6.40;99.90
9497;DHT22;4786;51.270;4.456;2023-03-01T09:16:22;6.50;99.90
9497;DHT22;4786;51.270;4.456;2023-03-01T09:18:50;6.20;99.90
9497;DHT22;4786;51.270;4.456;2023-03-01T09:21:17;6.00;99.90
9497;DHT22;4786;51.270;4.456;2023-03-01T09:23:45;6.00;99.90
9497;DHT22;4786;51.270;4.456;2023-03-01T09:26:17;6.20;99.90
9497;DHT22;4786;51.270;4.456;2023-03-01T09:28:45;6.10;99.90
9497;DHT22;4786;51.270;4.456;2023-03-01T09:31:12;6.20;99.90
9497;DHT22;4786;51.270;4.456;2023-03-01T09:33:40;6.20;99.90
9497;DHT22;4786;51.270;4.456;2023-03-01T09:36:11;5.90;99.90
9497;DHT22;4786;51.270;4.456;2023-03-01T09:38:37;6.00;99.90
9497;DHT22;4786;51.270;4.456;2023-03-01T09:43:57;5.80;99.90
9497;DHT22;4786;51.270;4.456;2023-03-01T09:46:25;5.70;99.90
9497;DHT22;4786;51.270;4.456;2023-03-01T09:48:57;5.70;99.90
9497;DHT22;4786;51.270;4.456;2023-03-01T09:51:30;5.80;99.90
9497;DHT22;4786;51.270;4.456;2023-03-01T09:53:57;5.80;99.90
9497;DHT22;4786;51.270;4.456;2023-03-01T09:56:32;6.00;99.90
9497;DHT22;4786;51.270;4.456;2023-03-01T10:02:01;5.80;99.90
9497;DHT22;4786;51.270;4.456;2023-03-01T10:04:46;5.90;99.90
9497;DHT22;4786;51.270;4.456;2023-03-01T10:09:43;6.10;99.90
9497;DHT22;4786;51.270;4.456;2023-03-01T10:12:18;6.20;99.90
9497;DHT22;4786;51.270;4.456;2023-03-01T10:20:22;5.90;99.90
9497;DHT22;4786;51.270;4.456;2023-03-01T10:22:48;5.90;99.90
9497;DHT22;4786;51.270;4.456;2023-03-01T10:30:50;6.10;99.90
9497;DHT22;4786;51.270;4.456;2023-03-01T10:33:23;5.90;99.90
9497;DHT22;4786;51.270;4.456;2023-03-01T10:35:50;6.10;99.90
9497;DHT22;4786;51.270;4.456;2023-03-01T10:38:16;6.40;99.90
9497;DHT22;4786;51.270;4.456;2023-03-01T10:41:05;6.40;99.90
9497;DHT22;4786;51.270;4.456;2023-03-01T10:43:56;6.30;99.90
9497;DHT22;4786;51.270;4.456;2023-03-01T10:46:28;6.40;99.90
9497;DHT22;4786;51.270;4.456;2023-03-01T10:49:20;6.50;99.90
9497;DHT22;4786;51.270;4.456;2023-03-01T10:51:49;6.70;99.90
9497;DHT22;4786;51.270;4.456;2023-03-01T10:54:29;6.50;99.90
9497;DHT22;4786;51.270;4.456;2023-03-01T10:57:04;6.60;99.90
9497;DHT22;4786;51.270;4.456;2023-03-01T10:59:35;6.50;99.90
9497;DHT22;4786;51.270;4.456;2023-03-01T11:04:39;6.70;99.90
9497;DHT22;4786;51.270;4.456;2023-03-01T11:07:05;6.80;99.90
9497;DHT22;4786;51.270;4.456;2023-03-01T11:09:32;7.00;99.90
9497;DHT22;4786;51.270;4.456;2023-03-01T11:12:12;7.10;99.90
9497;DHT22;4786;51.270;4.456;2023-03-01T11:14:47;7.20;99.90
9497;DHT22;4786;51.270;4.456;2023-03-01T11:17:31;7.30;99.90
9497;DHT22;4786;51.270;4.456;2023-03-01T11:20:17;7.40;99.90
9497;DHT22;4786;51.270;4.456;2023-03-01T11:22:53;7.40;99.90
9497;DHT22;4786;51.270;4.456;2023-03-01T11:25:26;7.60;99.90
9497;DHT22;4786;51.270;4.456;2023-03-01T11:27:54;7.50;99.90
9497;DHT22;4786;51.270;4.456;2023-03-01T11:30:34;7.50;99.90
9497;DHT22;4786;51.270;4.456;2023-03-01T11:38:39;8.00;99.90
9497;DHT22;4786;51.270;4.456;2023-03-01T11:41:32;8.00;99.90
9497;DHT22;4786;51.270;4.456;2023-03-01T11:44:03;8.00;99.90
9497;DHT22;4786;51.270;4.456;2023-03-01T12:21:23;8.10;98.90
9497;DHT22;4786;51.270;4.456;2023-03-01T12:46:18;8.40;97.50
9497;DHT22;4786;51.270;4.456;2023-03-01T12:51:31;8.20;97.60
9497;DHT22;4786;51.270;4.456;2023-03-01T12:54:00;8.20;97.90
9497;DHT22;4786;51.270;4.456;2023-03-01T12:56:35;8.10;98.60
9497;DHT22;4786;51.270;4.456;2023-03-01T13:06:50;8.00;98.40
9497;DHT22;4786;51.270;4.456;2023-03-01T13:09:41;8.20;98.50
9497;DHT22;4786;51.270;4.456;2023-03-01T13:12:47;8.10;98.40
9497;DHT22;4786;51.270;4.456;2023-03-01T13:17:55;8.20;98.30
9497;DHT22;4786;51.270;4.456;2023-03-01T13:20:29;8.10;98.20
9497;DHT22;4786;51.270;4.456;2023-03-01T13:26:05;8.40;98.30
9497;DHT22;4786;51.270;4.456;2023-03-01T13:30:58;8.30;98.50
9497;DHT22;4786;51.270;4.456;2023-03-01T13:35:57;7.90;99.40
9497;DHT22;4786;51.270;4.456;2023-03-01T13:38:54;8.10;99.80
9497;DHT22;4786;51.270;4.456;2023-03-01T13:46:47;8.00;99.40
9497;DHT22;4786;51.270;4.456;2023-03-01T13:49:21;8.10;99.10
9497;DHT22;4786;51.270;4.456;2023-03-01T13:51:49;8.00;99.00
9497;DHT22;4786;51.270;4.456;2023-03-01T13:54:17;7.90;98.30
9497;DHT22;4786;51.270;4.456;2023-03-01T13:56:46;7.90;98.40
9497;DHT22;4786;51.270;4.456;2023-03-01T13:59:15;7.80;98.30
9497;DHT22;4786;51.270;4.456;2023-03-01T14:01:41;7.80;99.00
9497;DHT22;4786;51.270;4.456;2023-03-01T14:06:46;7.80;98.90
9497;DHT22;4786;51.270;4.456;2023-03-01T14:09:22;7.80;98.80
9497;DHT22;4786;51.270;4.456;2023-03-01T14:20:24;8.10;98.70
9497;DHT22;4786;51.270;4.456;2023-03-01T14:22:59;8.00;98.40
9497;DHT22;4786;51.270;4.456;2023-03-01T14:25:34;8.10;98.70
9497;DHT22;4786;51.270;4.456;2023-03-01T14:28:28;8.10;97.50
9497;DHT22;4786;51.270;4.456;2023-03-01T14:30:59;8.00;97.10
9497;DHT22;4786;51.270;4.456;2023-03-01T14:33:32;8.10;97.20
9497;DHT22;4786;51.270;4.456;2023-03-01T14:36:12;8.10;97.70
9497;DHT22;4786;51.270;4.456;2023-03-01T14:38:41;8.20;97.40
9497;DHT22;4786;51.270;4.456;2023-03-01T14:41:15;8.00;97.20
9497;DHT22;4786;51.270;4.456;2023-03-01T14:44:07;8.00;97.50
9497;DHT22;4786;51.270;4.456;2023-03-01T14:46:40;8.00;97.40
9497;DHT22;4786;51.270;4.456;2023-03-01T14:49:19;7.90;97.70
9497;DHT22;4786;51.270;4.456;2023-03-01T14:51:56;8.00;97.70
9497;DHT22;4786;51.270;4.456;2023-03-01T14:54:29;7.90;98.10
9497;DHT22;4786;51.270;4.456;2023-03-01T14:57:01;8.00;98.70
9497;DHT22;4786;51.270;4.456;2023-03-01T14:59:28;8.00;98.50
9497;DHT22;4786;51.270;4.456;2023-03-01T15:01:56;8.00;98.10
9497;DHT22;4786;51.270;4.456;2023-03-01T15:04:24;7.90;98.20
9497;DHT22;4786;51.270;4.456;2023-03-01T15:06:53;7.80;99.20
9497;DHT22;4786;51.270;4.456;2023-03-01T15:09:21;7.80;98.90
9497;DHT22;4786;51.270;4.456;2023-03-01T15:11:48;7.80;99.00
9497;DHT22;4786;51.270;4.456;2023-03-01T15:14:40;7.80;99.30
9497;DHT22;4786;51.270;4.456;2023-03-01T15:17:36;7.60;99.10
9497;DHT22;4786;51.270;4.456;2023-03-01T15:20:13;7.50;99.20
9497;DHT22;4786;51.270;4.456;2023-03-01T15:22:44;7.50;98.60
9497;DHT22;4786;51.270;4.456;2023-03-01T15:25:19;7.50;98.80
9497;DHT22;4786;51.270;4.456;2023-03-01T15:27:50;7.50;98.60
9497;DHT22;4786;51.270;4.456;2023-03-01T15:30:23;7.50;98.80
9497;DHT22;4786;51.270;4.456;2023-03-01T15:35:48;7.50;98.80
9497;DHT22;4786;51.270;4.456;2023-03-01T15:40:53;7.50;99.20
9497;DHT22;4786;51.270;4.456;2023-03-01T15:43:45;7.50;99.40
9497;DHT22;4786;51.270;4.456;2023-03-01T15:48:52;7.40;99.90
9497;DHT22;4786;51.270;4.456;2023-03-01T15:51:28;7.40;99.90
9497;DHT22;4786;51.270;4.456;2023-03-01T15:53:55;7.40;99.90
9497;DHT22;4786;51.270;4.456;2023-03-01T15:56:21;7.50;99.90
9497;DHT22;4786;51.270;4.456;2023-03-01T15:58:48;7.40;99.90
9497;DHT22;4786;51.270;4.456;2023-03-01T16:01:15;7.30;99.90
9497;DHT22;4786;51.270;4.456;2023-03-01T16:03:45;7.40;99.90
9497;DHT22;4786;51.270;4.456;2023-03-01T16:06:11;7.30;99.90
9497;DHT22;4786;51.270;4.456;2023-03-01T16:08:38;7.20;99.90
9497;DHT22;4786;51.270;4.456;2023-03-01T16:11:14;7.10;99.90
9497;DHT22;4786;51.270;4.456;2023-03-01T16:13:40;7.10;99.90
9497;DHT22;4786;51.270;4.456;2023-03-01T16:16:07;7.10;99.90
9497;DHT22;4786;51.270;4.456;2023-03-01T16:18:32;7.10;99.90
9497;DHT22;4786;51.270;4.456;2023-03-01T16:20:58;7.10;99.90
9497;DHT22;4786;51.270;4.456;2023-03-01T16:23:24;7.10;99.90
9497;DHT22;4786;51.270;4.456;2023-03-01T16:25:51;7.00;99.90
9497;DHT22;4786;51.270;4.456;2023-03-01T16:28:16;7.00;99.90
9497;DHT22;4786;51.270;4.456;2023-03-01T16:30:46;7.00;99.90
9497;DHT22;4786;51.270;4.456;2023-03-01T16:33:13;7.00;99.90
9497;DHT22;4786;51.270;4.456;2023-03-01T16:35:40;6.90;99.90
9497;DHT22;4786;51.270;4.456;2023-03-01T16:38:06;6.90;99.90
9497;DHT22;4786;51.270;4.456;2023-03-01T16:40:31;7.00;99.90
9497;DHT22;4786;51.270;4.456;2023-03-01T16:42:59;6.90;99.90
9497;DHT22;4786;51.270;4.456;2023-03-01T16:45:26;6.90;99.90
9497;DHT22;4786;51.270;4.456;2023-03-01T16:47:53;6.80;99.90
9497;DHT22;4786;51.270;4.456;2023-03-01T16:50:19;6.70;99.90
9497;DHT22;4786;51.270;4.456;2023-03-01T16:52:45;6.70;99.90
9497;DHT22;4786;51.270;4.456;2023-03-01T16:55:11;6.70;99.90
9497;DHT22;4786;51.270;4.456;2023-03-01T16:57:37;6.70;99.90
9497;DHT22;4786;51.270;4.456;2023-03-01T17:00:09;6.70;99.90
9497;DHT22;4786;51.270;4.456;2023-03-01T17:02:36;6.70;99.90
9497;DHT22;4786;51.270;4.456;2023-03-01T17:05:02;6.70;99.90
9497;DHT22;4786;51.270;4.456;2023-03-01T17:07:29;6.50;99.90
9497;DHT22;4786;51.270;4.456;2023-03-01T17:10:02;6.50;99.90
9497;DHT22;4786;51.270;4.456;2023-03-01T17:12:28;6.50;99.90
9497;DHT22;4786;51.270;4.456;2023-03-01T17:14:55;6.40;99.90
9497;DHT22;4786;51.270;4.456;2023-03-01T17:17:21;6.40;99.90
9497;DHT22;4786;51.270;4.456;2023-03-01T17:19:47;6.30;99.90
9497;DHT22;4786;51.270;4.456;2023-03-01T17:22:13;6.30;99.90
9497;DHT22;4786;51.270;4.456;2023-03-01T17:24:40;6.20;99.90
9497;DHT22;4786;51.270;4.456;2023-03-01T17:27:07;6.20;99.90
9497;DHT22;4786;51.270;4.456;2023-03-01T17:29:33;6.10;99.90
9497;DHT22;4786;51.270;4.456;2023-03-01T17:31:59;6.10;99.90
9497;DHT22;4786;51.270;4.456;2023-03-01T17:34:25;6.10;99.90
9497;DHT22;4786;51.270;4.456;2023-03-01T17:36:51;6.00;99.90
9497;DHT22;4786;51.270;4.456;2023-03-01T17:39:18;6.00;99.90
9497;DHT22;4786;51.270;4.456;2023-03-01T17:41:53;5.90;99.90
9497;DHT22;4786;51.270;4.456;2023-03-01T17:44:19;5.90;99.90
9497;DHT22;4786;51.270;4.456;2023-03-01T17:46:45;5.90;99.90
9497;DHT22;4786;51.270;4.456;2023-03-01T17:49:10;5.90;99.90
9497;DHT22;4786;51.270;4.456;2023-03-01T17:51:36;5.80;99.90
9497;DHT22;4786;51.270;4.456;2023-03-01T17:54:02;5.80;99.90
9497;DHT22;4786;51.270;4.456;2023-03-01T17:56:28;5.80;99.90
9497;DHT22;4786;51.270;4.456;2023-03-01T17:58:54;5.70;99.90
9497;DHT22;4786;51.270;4.456;2023-03-01T18:01:21;5.60;99.90
9497;DHT22;4786;51.270;4.456;2023-03-01T18:03:50;5.60;99.90
9497;DHT22;4786;51.270;4.456;2023-03-01T18:06:24;5.50;99.90
9497;DHT22;4786;51.270;4.456;2023-03-01T18:08:51;5.60;99.90
9497;DHT22;4786;51.270;4.456;2023-03-01T18:11:18;5.60;99.90
9497;DHT22;4786;51.270;4.456;2023-03-01T18:13:44;5.50;99.90
9497;DHT22;4786;51.270;4.456;2023-03-01T18:16:13;5.50;99.90
9497;DHT22;4786;51.270;4.456;2023-03-01T18:18:40;5.40;99.90
9497;DHT22;4786;51.270;4.456;2023-03-01T18:21:07;5.40;99.90
9497;DHT22;4786;51.270;4.456;2023-03-01T18:23:34;5.30;99.90
9497;DHT22;4786;51.270;4.456;2023-03-01T18:26:06;5.30;99.90
9497;DHT22;4786;51.270;4.456;2023-03-01T18:28:33;5.30;99.90
9497;DHT22;4786;51.270;4.456;2023-03-01T18:31:05;5.30;99.90
9497;DHT22;4786;51.270;4.456;2023-03-01T18:33:33;5.20;99.90
9497;DHT22;4786;51.270;4.456;2023-03-01T18:36:00;5.20;99.90
9497;DHT22;4786;51.270;4.456;2023-03-01T18:38:27;5.10;99.90
9497;DHT22;4786;51.270;4.456;2023-03-01T18:40:54;5.10;99.90
9497;DHT22;4786;51.270;4.456;2023-03-01T18:43:21;5.00;99.90
9497;DHT22;4786;51.270;4.456;2023-03-01T18:45:47;5.00;99.90
9497;DHT22;4786;51.270;4.456;2023-03-01T18:48:14;5.20;99.90
9497;DHT22;4786;51.270;4.456;2023-03-01T18:50:41;4.90;99.90